sensor_id;sensor_type;location;lat;lon;timestamp;temperature;humidity
37678;DHT22;23517;50.390;8.616;2023-03-26T00:01:33;8.10;51.80
37678;DHT22;23517;50.390;8.616;2023-03-26T00:04:03;8.10;52.10
37678;DHT22;23517;50.390;8.616;2023-03-26T00:06:34;8.10;52.10
37678;DHT22;23517;50.390;8.616;2023-03-26T00:09:07;8.10;52.40
37678;DHT22;23517;50.390;8.616;2023-03-26T00:11:35;8.20;52.10
37678;DHT22;23517;50.390;8.616;2023-03-26T00:14:01;8.20;52.00
37678;DHT22;23517;50.390;8.616;2023-03-26T00:16:30;8.20;52.10
37678;DHT22;23517;50.390;8.616;2023-03-26T00:19:01;8.20;52.30
37678;DHT22;23517;50.390;8.616;2023-03-26T00:21:29;8.20;52.30
37678;DHT22;23517;50.390;8.616;2023-03-26T00:23:59;8.20;52.10
37678;DHT22;23517;50.390;8.616;2023-03-26T00:26:33;8.20;52.20
37678;DHT22;23517;50.390;8.616;2023-03-26T00:29:00;8.30;52.00
37678;DHT22;23517;50.390;8.616;2023-03-26T00:31:29;8.30;51.70
37678;DHT22;23517;50.390;8.616;2023-03-26T00:33:56;8.40;51.50
37678;DHT22;23517;50.390;8.616;2023-03-26T00:36:24;8.40;51.40
37678;DHT22;23517;50.390;8.616;2023-03-26T00:38:52;8.40;51.60
37678;DHT22;23517;50.390;8.616;2023-03-26T00:41:21;8.40;51.20
37678;DHT22;23517;50.390;8.616;2023-03-26T00:43:56;8.30;51.50
37678;DHT22;23517;50.390;8.616;2023-03-26T00:46:28;8.30;51.60
37678;DHT22;23517;50.390;8.616;2023-03-26T00:48:57;8.30;51.70
37678;DHT22;23517;50.390;8.616;2023-03-26T00:51:26;8.30;51.80
37678;DHT22;23517;50.390;8.616;2023-03-26T00:53:53;8.30;51.80
37678;DHT22;23517;50.390;8.616;2023-03-26T00:56:20;8.40;51.80
37678;DHT22;23517;50.390;8.616;2023-03-26T00:58:47;8.30;51.80
37678;DHT22;23517;50.390;8.616;2023-03-26T01:01:19;8.30;52.20
37678;DHT22;23517;50.390;8.616;2023-03-26T01:03:54;8.20;52.30
37678;DHT22;23517;50.390;8.616;2023-03-26T01:06:36;8.20;52.30
37678;DHT22;23517;50.390;8.616;2023-03-26T01:09:15;8.20;52.60
37678;DHT22;23517;50.390;8.616;2023-03-26T01:11:43;8.20;52.60
37678;DHT22;23517;50.390;8.616;2023-03-26T01:14:15;8.20;52.50
37678;DHT22;23517;50.390;8.616;2023-03-26T01:16:55;8.20;52.70
37678;DHT22;23517;50.390;8.616;2023-03-26T01:22:19;8.10;52.80
37678;DHT22;23517;50.390;8.616;2023-03-26T01:24:49;8.20;52.70
37678;DHT22;23517;50.390;8.616;2023-03-26T01:30:34;8.10;52.60
37678;DHT22;23517;50.390;8.616;2023-03-26T01:33:23;8.00;52.90
37678;DHT22;23517;50.390;8.616;2023-03-26T01:36:37;7.90;53.10
37678;DHT22;23517;50.390;8.616;2023-03-26T01:39:16;7.80;53.30
37678;DHT22;23517;50.390;8.616;2023-03-26T01:41:54;7.80;53.60
37678;DHT22;23517;50.390;8.616;2023-03-26T01:45:20;7.80;54.00
37678;DHT22;23517;50.390;8.616;2023-03-26T01:47:41;7.90;54.20
37678;DHT22;23517;50.390;8.616;2023-03-26T01:50:10;7.90;54.00
37678;DHT22;23517;50.390;8.616;2023-03-26T01:52:36;7.80;53.90
37678;DHT22;23517;50.390;8.616;2023-03-26T01:55:03;7.90;54.20
37678;DHT22;23517;50.390;8.616;2023-03-26T01:57:33;8.00;53.70
37678;DHT22;23517;50.390;8.616;2023-03-26T02:02:58;7.90;54.20
37678;DHT22;23517;50.390;8.616;2023-03-26T02:05:53;7.80;54.40
37678;DHT22;23517;50.390;8.616;2023-03-26T02:08:37;7.80;54.60
37678;DHT22;23517;50.390;8.616;2023-03-26T02:11:09;7.70;55.00
37678;DHT22;23517;50.390;8.616;2023-03-26T02:13:42;7.60;55.30
37678;DHT22;23517;50.390;8.616;2023-03-26T02:16:12;7.60;55.50
37678;DHT22;23517;50.390;8.616;2023-03-26T02:18:43;7.60;55.40
37678;DHT22;23517;50.390;8.616;2023-03-26T02:21:19;7.50;55.30
37678;DHT22;23517;50.390;8.616;2023-03-26T02:23:50;7.50;55.90
37678;DHT22;23517;50.390;8.616;2023-03-26T02:26:30;7.50;55.90
37678;DHT22;23517;50.390;8.616;2023-03-26T02:28:59;7.50;55.90
37678;DHT22;23517;50.390;8.616;2023-03-26T02:31:27;7.50;56.10
37678;DHT22;23517;50.390;8.616;2023-03-26T02:33:53;7.40;56.00
37678;DHT22;23517;50.390;8.616;2023-03-26T02:36:22;7.40;56.10
37678;DHT22;23517;50.390;8.616;2023-03-26T02:38:55;7.30;56.10
37678;DHT22;23517;50.390;8.616;2023-03-26T02:41:23;7.20;56.40
37678;DHT22;23517;50.390;8.616;2023-03-26T02:43:50;7.20;56.60
37678;DHT22;23517;50.390;8.616;2023-03-26T02:46:19;7.10;57.00
37678;DHT22;23517;50.390;8.616;2023-03-26T02:48:46;7.00;57.30
37678;DHT22;23517;50.390;8.616;2023-03-26T02:51:14;6.90;57.60
37678;DHT22;23517;50.390;8.616;2023-03-26T02:53:43;6.90;58.00
37678;DHT22;23517;50.390;8.616;2023-03-26T02:56:10;7.00;58.40
37678;DHT22;23517;50.390;8.616;2023-03-26T02:58:37;7.00;58.10
37678;DHT22;23517;50.390;8.616;2023-03-26T03:01:04;7.00;58.10
37678;DHT22;23517;50.390;8.616;2023-03-26T03:03:32;7.00;58.20
37678;DHT22;23517;50.390;8.616;2023-03-26T03:06:00;7.00;58.10
37678;DHT22;23517;50.390;8.616;2023-03-26T03:08:27;7.10;58.10
37678;DHT22;23517;50.390;8.616;2023-03-26T03:10:56;7.10;58.10
37678;DHT22;23517;50.390;8.616;2023-03-26T03:13:24;7.10;58.10
37678;DHT22;23517;50.390;8.616;2023-03-26T03:15:51;7.00;58.30
37678;DHT22;23517;50.390;8.616;2023-03-26T03:18:18;7.00;58.50
37678;DHT22;23517;50.390;8.616;2023-03-26T03:20:45;7.00;58.50
37678;DHT22;23517;50.390;8.616;2023-03-26T03:23:12;6.90;58.40
37678;DHT22;23517;50.390;8.616;2023-03-26T03:25:39;6.90;58.40
37678;DHT22;23517;50.390;8.616;2023-03-26T03:28:07;6.90;58.40
37678;DHT22;23517;50.390;8.616;2023-03-26T03:30:34;6.90;58.60
37678;DHT22;23517;50.390;8.616;2023-03-26T03:33:01;6.90;58.80
37678;DHT22;23517;50.390;8.616;2023-03-26T03:35:29;6.90;58.80
37678;DHT22;23517;50.390;8.616;2023-03-26T03:37:56;6.90;59.00
37678;DHT22;23517;50.390;8.616;2023-03-26T03:40:25;6.90;59.20
37678;DHT22;23517;50.390;8.616;2023-03-26T03:42:52;6.80;59.20
37678;DHT22;23517;50.390;8.616;2023-03-26T03:45:18;6.80;59.20
37678;DHT22;23517;50.390;8.616;2023-03-26T03:47:45;6.80;59.40
37678;DHT22;23517;50.390;8.616;2023-03-26T03:50:12;6.70;59.60
37678;DHT22;23517;50.390;8.616;2023-03-26T03:52:38;6.70;59.80
37678;DHT22;23517;50.390;8.616;2023-03-26T03:55:05;6.70;59.90
37678;DHT22;23517;50.390;8.616;2023-03-26T03:57:32;6.60;59.90
37678;DHT22;23517;50.390;8.616;2023-03-26T03:59:59;6.60;60.10
37678;DHT22;23517;50.390;8.616;2023-03-26T04:02:26;6.60;60.30
37678;DHT22;23517;50.390;8.616;2023-03-26T04:05:00;6.60;60.50
37678;DHT22;23517;50.390;8.616;2023-03-26T04:07:29;6.60;60.40
37678;DHT22;23517;50.390;8.616;2023-03-26T04:09:57;6.50;60.60
37678;DHT22;23517;50.390;8.616;2023-03-26T04:12:29;6.50;60.30
37678;DHT22;23517;50.390;8.616;2023-03-26T04:14:57;6.40;60.30
37678;DHT22;23517;50.390;8.616;2023-03-26T04:17:24;6.30;61.40
37678;DHT22;23517;50.390;8.616;2023-03-26T04:19:52;6.30;61.70
37678;DHT22;23517;50.390;8.616;2023-03-26T04:22:20;6.30;61.80
37678;DHT22;23517;50.390;8.616;2023-03-26T04:24:48;6.20;61.90
37678;DHT22;23517;50.390;8.616;2023-03-26T04:27:18;6.20;62.10
37678;DHT22;23517;50.390;8.616;2023-03-26T04:29:47;6.20;62.60
37678;DHT22;23517;50.390;8.616;2023-03-26T04:32:23;6.10;63.10
37678;DHT22;23517;50.390;8.616;2023-03-26T04:34:56;6.00;63.60
37678;DHT22;23517;50.390;8.616;2023-03-26T04:37:46;6.00;63.20
37678;DHT22;23517;50.390;8.616;2023-03-26T04:40:16;5.90;63.40
37678;DHT22;23517;50.390;8.616;2023-03-26T04:42:47;5.90;63.80
37678;DHT22;23517;50.390;8.616;2023-03-26T04:45:16;5.90;64.40
37678;DHT22;23517;50.390;8.616;2023-03-26T04:47:48;5.90;64.30
37678;DHT22;23517;50.390;8.616;2023-03-26T04:50:15;5.90;63.80
37678;DHT22;23517;50.390;8.616;2023-03-26T04:52:42;5.90;63.90
37678;DHT22;23517;50.390;8.616;2023-03-26T04:55:24;5.90;63.30
37678;DHT22;23517;50.390;8.616;2023-03-26T04:57:56;5.90;64.30
37678;DHT22;23517;50.390;8.616;2023-03-26T05:00:23;6.00;64.90
37678;DHT22;23517;50.390;8.616;2023-03-26T05:02:50;6.00;64.70
37678;DHT22;23517;50.390;8.616;2023-03-26T05:05:21;6.00;64.90
37678;DHT22;23517;50.390;8.616;2023-03-26T05:07:48;6.10;65.50
37678;DHT22;23517;50.390;8.616;2023-03-26T05:10:15;6.10;66.40
37678;DHT22;23517;50.390;8.616;2023-03-26T05:12:42;6.10;66.40
37678;DHT22;23517;50.390;8.616;2023-03-26T05:15:10;6.10;66.60
37678;DHT22;23517;50.390;8.616;2023-03-26T05:17:37;6.10;67.40
37678;DHT22;23517;50.390;8.616;2023-03-26T05:20:28;6.30;68.70
37678;DHT22;23517;50.390;8.616;2023-03-26T05:22:56;6.30;68.30
37678;DHT22;23517;50.390;8.616;2023-03-26T05:25:23;6.40;68.70
37678;DHT22;23517;50.390;8.616;2023-03-26T05:27:50;6.40;68.70
37678;DHT22;23517;50.390;8.616;2023-03-26T05:30:19;6.50;69.30
37678;DHT22;23517;50.390;8.616;2023-03-26T05:32:47;6.50;69.50
37678;DHT22;23517;50.390;8.616;2023-03-26T05:35:15;6.60;69.20
37678;DHT22;23517;50.390;8.616;2023-03-26T05:37:43;6.60;68.40
37678;DHT22;23517;50.390;8.616;2023-03-26T05:40:12;6.60;68.20
37678;DHT22;23517;50.390;8.616;2023-03-26T05:42:40;6.60;67.50
37678;DHT22;23517;50.390;8.616;2023-03-26T05:45:09;6.50;67.30
37678;DHT22;23517;50.390;8.616;2023-03-26T05:47:37;6.40;66.90
37678;DHT22;23517;50.390;8.616;2023-03-26T05:50:04;6.40;67.50
37678;DHT22;23517;50.390;8.616;2023-03-26T05:52:32;6.40;68.20
37678;DHT22;23517;50.390;8.616;2023-03-26T05:54:59;6.40;68.90
37678;DHT22;23517;50.390;8.616;2023-03-26T05:57:28;6.40;68.30
37678;DHT22;23517;50.390;8.616;2023-03-26T05:59:56;6.40;68.10
37678;DHT22;23517;50.390;8.616;2023-03-26T06:02:22;6.40;69.10
37678;DHT22;23517;50.390;8.616;2023-03-26T06:04:49;6.30;68.50
37678;DHT22;23517;50.390;8.616;2023-03-26T06:07:17;6.20;69.20
37678;DHT22;23517;50.390;8.616;2023-03-26T06:09:45;6.30;69.90
37678;DHT22;23517;50.390;8.616;2023-03-26T06:12:11;6.30;69.60
37678;DHT22;23517;50.390;8.616;2023-03-26T06:14:39;6.20;70.20
37678;DHT22;23517;50.390;8.616;2023-03-26T06:17:08;6.30;70.20
37678;DHT22;23517;50.390;8.616;2023-03-26T06:19:36;6.30;69.70
37678;DHT22;23517;50.390;8.616;2023-03-26T06:22:03;6.30;70.10
37678;DHT22;23517;50.390;8.616;2023-03-26T06:24:31;6.30;71.10
37678;DHT22;23517;50.390;8.616;2023-03-26T06:26:58;6.30;71.90
37678;DHT22;23517;50.390;8.616;2023-03-26T06:29:25;6.30;72.20
37678;DHT22;23517;50.390;8.616;2023-03-26T06:31:52;6.30;72.10
37678;DHT22;23517;50.390;8.616;2023-03-26T06:34:19;6.40;72.00
37678;DHT22;23517;50.390;8.616;2023-03-26T06:36:45;6.40;73.50
37678;DHT22;23517;50.390;8.616;2023-03-26T06:39:14;6.50;72.40
37678;DHT22;23517;50.390;8.616;2023-03-26T06:41:41;6.60;72.50
37678;DHT22;23517;50.390;8.616;2023-03-26T06:44:08;6.60;72.30
37678;DHT22;23517;50.390;8.616;2023-03-26T06:46:34;6.60;73.10
37678;DHT22;23517;50.390;8.616;2023-03-26T06:49:01;6.70;74.30
37678;DHT22;23517;50.390;8.616;2023-03-26T06:51:28;6.80;74.10
37678;DHT22;23517;50.390;8.616;2023-03-26T06:53:55;6.80;74.10
37678;DHT22;23517;50.390;8.616;2023-03-26T06:56:21;6.90;74.40
37678;DHT22;23517;50.390;8.616;2023-03-26T06:58:51;7.00;74.50
37678;DHT22;23517;50.390;8.616;2023-03-26T07:01:17;7.20;74.00
37678;DHT22;23517;50.390;8.616;2023-03-26T07:03:44;7.20;72.60
37678;DHT22;23517;50.390;8.616;2023-03-26T07:06:11;7.30;72.60
37678;DHT22;23517;50.390;8.616;2023-03-26T07:08:37;7.30;72.90
37678;DHT22;23517;50.390;8.616;2023-03-26T07:11:04;7.30;72.60
37678;DHT22;23517;50.390;8.616;2023-03-26T07:13:31;7.30;73.20
37678;DHT22;23517;50.390;8.616;2023-03-26T07:15:58;7.30;73.20
37678;DHT22;23517;50.390;8.616;2023-03-26T07:18:24;7.40;73.50
37678;DHT22;23517;50.390;8.616;2023-03-26T07:20:51;7.50;73.10
37678;DHT22;23517;50.390;8.616;2023-03-26T07:23:19;7.50;72.80
37678;DHT22;23517;50.390;8.616;2023-03-26T07:25:47;7.60;72.90
37678;DHT22;23517;50.390;8.616;2023-03-26T07:28:35;7.70;71.40
37678;DHT22;23517;50.390;8.616;2023-03-26T07:31:27;7.70;72.10
37678;DHT22;23517;50.390;8.616;2023-03-26T07:36:56;7.70;69.20
37678;DHT22;23517;50.390;8.616;2023-03-26T07:45:24;7.80;68.60
37678;DHT22;23517;50.390;8.616;2023-03-26T07:48:20;7.80;68.10
37678;DHT22;23517;50.390;8.616;2023-03-26T07:50:56;7.80;69.10
37678;DHT22;23517;50.390;8.616;2023-03-26T07:53:24;7.80;69.50
37678;DHT22;23517;50.390;8.616;2023-03-26T07:56:13;7.80;69.90
37678;DHT22;23517;50.390;8.616;2023-03-26T08:01:25;8.00;68.60
37678;DHT22;23517;50.390;8.616;2023-03-26T08:07:40;8.10;67.60
37678;DHT22;23517;50.390;8.616;2023-03-26T08:10:22;8.20;67.10
37678;DHT22;23517;50.390;8.616;2023-03-26T08:13:14;8.20;67.20
37678;DHT22;23517;50.390;8.616;2023-03-26T08:15:49;8.20;67.00
37678;DHT22;23517;50.390;8.616;2023-03-26T08:21:34;8.30;67.10
37678;DHT22;23517;50.390;8.616;2023-03-26T08:24:21;8.30;68.30
37678;DHT22;23517;50.390;8.616;2023-03-26T08:30:14;8.40;67.80
37678;DHT22;23517;50.390;8.616;2023-03-26T08:32:58;8.40;66.80
37678;DHT22;23517;50.390;8.616;2023-03-26T08:35:27;8.30;67.40
37678;DHT22;23517;50.390;8.616;2023-03-26T08:37:53;8.30;66.10
37678;DHT22;23517;50.390;8.616;2023-03-26T08:43:36;8.20;67.60
37678;DHT22;23517;50.390;8.616;2023-03-26T08:49:53;8.10;67.70
37678;DHT22;23517;50.390;8.616;2023-03-26T09:10:49;8.10;67.20
37678;DHT22;23517;50.390;8.616;2023-03-26T09:19:41;8.30;65.00
37678;DHT22;23517;50.390;8.616;2023-03-26T09:26:00;8.30;64.90
37678;DHT22;23517;50.390;8.616;2023-03-26T09:44:21;8.30;64.90
37678;DHT22;23517;50.390;8.616;2023-03-26T09:49:36;8.40;65.10
37678;DHT22;23517;50.390;8.616;2023-03-26T09:52:11;8.30;65.00
37678;DHT22;23517;50.390;8.616;2023-03-26T09:55:08;8.30;64.70
37678;DHT22;23517;50.390;8.616;2023-03-26T09:58:09;8.30;65.20
37678;DHT22;23517;50.390;8.616;2023-03-26T10:06:45;8.20;65.40
37678;DHT22;23517;50.390;8.616;2023-03-26T10:12:43;8.10;64.30
37678;DHT22;23517;50.390;8.616;2023-03-26T10:15:20;8.20;64.50
37678;DHT22;23517;50.390;8.616;2023-03-26T10:21:20;8.30;64.00
37678;DHT22;23517;50.390;8.616;2023-03-26T10:27:03;9.20;60.50
37678;DHT22;23517;50.390;8.616;2023-03-26T10:33:40;10.00;55.30
37678;DHT22;23517;50.390;8.616;2023-03-26T10:35:49;10.10;53.70
37678;DHT22;23517;50.390;8.616;2023-03-26T10:39:11;10.50;54.30
37678;DHT22;23517;50.390;8.616;2023-03-26T10:41:40;10.60;53.50
37678;DHT22;23517;50.390;8.616;2023-03-26T10:44:34;10.80;51.90
37678;DHT22;23517;50.390;8.616;2023-03-26T10:47:32;10.70;51.90
37678;DHT22;23517;50.390;8.616;2023-03-26T10:56:26;9.70;55.50
37678;DHT22;23517;50.390;8.616;2023-03-26T10:58:55;9.70;56.00
37678;DHT22;23517;50.390;8.616;2023-03-26T11:04:50;9.90;55.60
37678;DHT22;23517;50.390;8.616;2023-03-26T11:07:47;10.20;56.20
37678;DHT22;23517;50.390;8.616;2023-03-26T11:10:55;10.30;54.10
37678;DHT22;23517;50.390;8.616;2023-03-26T11:13:44;10.50;54.50
37678;DHT22;23517;50.390;8.616;2023-03-26T11:28:15;10.10;57.00
37678;DHT22;23517;50.390;8.616;2023-03-26T11:31:00;9.90;57.70
37678;DHT22;23517;50.390;8.616;2023-03-26T11:33:40;9.90;58.40
37678;DHT22;23517;50.390;8.616;2023-03-26T11:36:18;9.90;59.20
37678;DHT22;23517;50.390;8.616;2023-03-26T11:38:53;9.90;59.10
37678;DHT22;23517;50.390;8.616;2023-03-26T11:41:25;9.90;60.00
37678;DHT22;23517;50.390;8.616;2023-03-26T11:43:56;10.00;59.40
37678;DHT22;23517;50.390;8.616;2023-03-26T11:46:25;9.90;59.70
37678;DHT22;23517;50.390;8.616;2023-03-26T11:48:56;9.90;59.30
37678;DHT22;23517;50.390;8.616;2023-03-26T11:54:05;10.30;58.50
37678;DHT22;23517;50.390;8.616;2023-03-26T11:56:57;10.50;56.50
37678;DHT22;23517;50.390;8.616;2023-03-26T12:02:29;10.60;57.00
37678;DHT22;23517;50.390;8.616;2023-03-26T12:05:16;10.90;57.90
37678;DHT22;23517;50.390;8.616;2023-03-26T12:07:55;11.00;54.80
37678;DHT22;23517;50.390;8.616;2023-03-26T12:10:34;11.00;55.50
37678;DHT22;23517;50.390;8.616;2023-03-26T12:16:16;10.80;55.00
37678;DHT22;23517;50.390;8.616;2023-03-26T12:18:46;10.70;55.90
37678;DHT22;23517;50.390;8.616;2023-03-26T12:21:23;10.60;56.40
37678;DHT22;23517;50.390;8.616;2023-03-26T12:26:36;10.70;56.30
37678;DHT22;23517;50.390;8.616;2023-03-26T12:29:17;10.70;57.00
37678;DHT22;23517;50.390;8.616;2023-03-26T12:31:54;10.60;57.10
37678;DHT22;23517;50.390;8.616;2023-03-26T12:34:29;10.50;57.20
37678;DHT22;23517;50.390;8.616;2023-03-26T12:37:01;10.60;57.20
37678;DHT22;23517;50.390;8.616;2023-03-26T12:39:37;10.60;57.50
37678;DHT22;23517;50.390;8.616;2023-03-26T12:42:31;10.70;57.90
37678;DHT22;23517;50.390;8.616;2023-03-26T12:45:27;10.70;57.20
37678;DHT22;23517;50.390;8.616;2023-03-26T12:47:57;10.60;57.20
37678;DHT22;23517;50.390;8.616;2023-03-26T12:50:42;10.60;57.30
37678;DHT22;23517;50.390;8.616;2023-03-26T12:53:52;10.60;56.60
37678;DHT22;23517;50.390;8.616;2023-03-26T13:00:14;10.80;55.40
37678;DHT22;23517;50.390;8.616;2023-03-26T13:05:53;11.10;55.60
37678;DHT22;23517;50.390;8.616;2023-03-26T13:08:36;11.30;52.40
37678;DHT22;23517;50.390;8.616;2023-03-26T13:20:49;12.00;51.90
37678;DHT22;23517;50.390;8.616;2023-03-26T13:23:30;12.10;49.30
37678;DHT22;23517;50.390;8.616;2023-03-26T13:43:51;12.00;44.90
37678;DHT22;23517;50.390;8.616;2023-03-26T13:46:31;12.10;44.90
37678;DHT22;23517;50.390;8.616;2023-03-26T13:51:50;12.60;41.80
37678;DHT22;23517;50.390;8.616;2023-03-26T13:54:43;12.70;42.50
37678;DHT22;23517;50.390;8.616;2023-03-26T13:57:27;12.70;40.00
37678;DHT22;23517;50.390;8.616;2023-03-26T14:00:12;12.70;39.90
37678;DHT22;23517;50.390;8.616;2023-03-26T14:02:43;12.60;39.30
37678;DHT22;23517;50.390;8.616;2023-03-26T14:05:28;12.60;39.40
37678;DHT22;23517;50.390;8.616;2023-03-26T14:08:03;12.50;40.10
37678;DHT22;23517;50.390;8.616;2023-03-26T14:10:48;12.50;41.10
37678;DHT22;23517;50.390;8.616;2023-03-26T14:13:35;12.50;40.30
37678;DHT22;23517;50.390;8.616;2023-03-26T14:16:14;12.40;41.10
37678;DHT22;23517;50.390;8.616;2023-03-26T14:19:21;12.50;39.60
37678;DHT22;23517;50.390;8.616;2023-03-26T14:22:30;12.50;40.20
37678;DHT22;23517;50.390;8.616;2023-03-26T14:35:10;11.70;44.40
37678;DHT22;23517;50.390;8.616;2023-03-26T14:38:18;11.40;44.50
37678;DHT22;23517;50.390;8.616;2023-03-26T14:41:22;11.10;47.20
37678;DHT22;23517;50.390;8.616;2023-03-26T14:47:19;11.00;49.30
37678;DHT22;23517;50.390;8.616;2023-03-26T14:50:18;11.00;46.70
37678;DHT22;23517;50.390;8.616;2023-03-26T14:52:58;10.80;47.60
37678;DHT22;23517;50.390;8.616;2023-03-26T15:04:55;9.60;54.50
37678;DHT22;23517;50.390;8.616;2023-03-26T15:08:04;9.40;56.50
37678;DHT22;23517;50.390;8.616;2023-03-26T15:10:47;9.40;58.40
37678;DHT22;23517;50.390;8.616;2023-03-26T15:14:18;9.30;58.90
37678;DHT22;23517;50.390;8.616;2023-03-26T15:20:47;9.20;59.60
37678;DHT22;23517;50.390;8.616;2023-03-26T15:30:16;9.20;61.60
37678;DHT22;23517;50.390;8.616;2023-03-26T15:53:56;8.70;64.70
37678;DHT22;23517;50.390;8.616;2023-03-26T15:56:43;8.60;60.00
37678;DHT22;23517;50.390;8.616;2023-03-26T15:59:33;8.60;65.00
37678;DHT22;23517;50.390;8.616;2023-03-26T16:04:41;8.50;64.50
37678;DHT22;23517;50.390;8.616;2023-03-26T16:15:52;8.40;64.50
37678;DHT22;23517;50.390;8.616;2023-03-26T16:26:35;8.40;62.90
37678;DHT22;23517;50.390;8.616;2023-03-26T16:29:19;8.50;62.70
37678;DHT22;23517;50.390;8.616;2023-03-26T16:37:48;8.50;56.60
37678;DHT22;23517;50.390;8.616;2023-03-26T16:46:15;8.60;64.80
37678;DHT22;23517;50.390;8.616;2023-03-26T17:00:02;8.70;63.60
37678;DHT22;23517;50.390;8.616;2023-03-26T17:03:22;8.60;64.80
37678;DHT22;23517;50.390;8.616;2023-03-26T17:08:53;8.60;65.00
37678;DHT22;23517;50.390;8.616;2023-03-26T17:32:11;8.30;69.10
37678;DHT22;23517;50.390;8.616;2023-03-26T17:42:29;8.10;71.50
37678;DHT22;23517;50.390;8.616;2023-03-26T17:45:08;8.00;72.00
37678;DHT22;23517;50.390;8.616;2023-03-26T17:47:49;7.90;73.90
37678;DHT22;23517;50.390;8.616;2023-03-26T17:50:23;7.90;74.90
37678;DHT22;23517;50.390;8.616;2023-03-26T17:53:01;7.90;75.30
37678;DHT22;23517;50.390;8.616;2023-03-26T17:55:32;7.90;75.40
37678;DHT22;23517;50.390;8.616;2023-03-26T17:58:04;7.90;76.20
37678;DHT22;23517;50.390;8.616;2023-03-26T18:00:41;7.90;76.50
37678;DHT22;23517;50.390;8.616;2023-03-26T18:05:52;7.90;76.90
37678;DHT22;23517;50.390;8.616;2023-03-26T18:08:49;7.90;76.70
37678;DHT22;23517;50.390;8.616;2023-03-26T18:11:37;7.90;76.70
37678;DHT22;23517;50.390;8.616;2023-03-26T18:17:00;7.90;76.40
37678;DHT22;23517;50.390;8.616;2023-03-26T18:19:28;7.90;76.80
37678;DHT22;23517;50.390;8.616;2023-03-26T18:21:58;7.90;76.90
37678;DHT22;23517;50.390;8.616;2023-03-26T18:24:38;7.90;76.80
37678;DHT22;23517;50.390;8.616;2023-03-26T18:27:11;7.90;77.30
37678;DHT22;23517;50.390;8.616;2023-03-26T18:32:29;7.80;76.90
37678;DHT22;23517;50.390;8.616;2023-03-26T18:35:10;7.90;77.10
37678;DHT22;23517;50.390;8.616;2023-03-26T18:37:40;7.90;77.10
37678;DHT22;23517;50.390;8.616;2023-03-26T18:40:20;7.90;77.10
37678;DHT22;23517;50.390;8.616;2023-03-26T18:42:51;7.90;77.50
37678;DHT22;23517;50.390;8.616;2023-03-26T18:47:52;7.90;77.80
37678;DHT22;23517;50.390;8.616;2023-03-26T18:50:28;7.90;78.00
37678;DHT22;23517;50.390;8.616;2023-03-26T18:52:58;7.90;77.60
37678;DHT22;23517;50.390;8.616;2023-03-26T18:55:27;7.90;77.60
37678;DHT22;23517;50.390;8.616;2023-03-26T18:57:55;7.80;77.60
37678;DHT22;23517;50.390;8.616;2023-03-26T19:00:26;7.80;78.40
37678;DHT22;23517;50.390;8.616;2023-03-26T19:03:02;7.80;78.90
37678;DHT22;23517;50.390;8.616;2023-03-26T19:05:35;7.70;79.70
37678;DHT22;23517;50.390;8.616;2023-03-26T19:08:04;7.80;80.70
37678;DHT22;23517;50.390;8.616;2023-03-26T19:10:32;7.70;79.70
37678;DHT22;23517;50.390;8.616;2023-03-26T19:13:02;7.70;79.90
37678;DHT22;23517;50.390;8.616;2023-03-26T19:15:31;7.70;79.60
37678;DHT22;23517;50.390;8.616;2023-03-26T19:18:01;7.70;79.40
37678;DHT22;23517;50.390;8.616;2023-03-26T19:20:44;7.80;78.10
37678;DHT22;23517;50.390;8.616;2023-03-26T19:23:16;7.70;78.80
37678;DHT22;23517;50.390;8.616;2023-03-26T19:25:49;7.80;76.70
37678;DHT22;23517;50.390;8.616;2023-03-26T19:28:31;7.80;76.10
37678;DHT22;23517;50.390;8.616;2023-03-26T19:31:26;7.70;75.00
37678;DHT22;23517;50.390;8.616;2023-03-26T19:34:13;7.70;74.10
37678;DHT22;23517;50.390;8.616;2023-03-26T19:36:56;7.70;73.80
37678;DHT22;23517;50.390;8.616;2023-03-26T19:39:39;7.60;74.20
37678;DHT22;23517;50.390;8.616;2023-03-26T19:42:25;7.50;74.90
37678;DHT22;23517;50.390;8.616;2023-03-26T19:45:16;7.50;74.90
37678;DHT22;23517;50.390;8.616;2023-03-26T19:47:46;7.40;76.60
37678;DHT22;23517;50.390;8.616;2023-03-26T19:50:28;7.40;77.40
37678;DHT22;23517;50.390;8.616;2023-03-26T19:53:12;7.50;76.40
37678;DHT22;23517;50.390;8.616;2023-03-26T19:56:10;7.50;75.00
37678;DHT22;23517;50.390;8.616;2023-03-26T19:58:39;7.40;74.30
37678;DHT22;23517;50.390;8.616;2023-03-26T20:03:47;7.40;73.20
37678;DHT22;23517;50.390;8.616;2023-03-26T20:06:18;7.40;73.30
37678;DHT22;23517;50.390;8.616;2023-03-26T20:08:53;7.30;73.60
37678;DHT22;23517;50.390;8.616;2023-03-26T20:11:22;7.30;74.90
37678;DHT22;23517;50.390;8.616;2023-03-26T20:13:59;7.30;73.00
37678;DHT22;23517;50.390;8.616;2023-03-26T20:16:29;7.30;73.10
37678;DHT22;23517;50.390;8.616;2023-03-26T20:18:59;7.20;74.00
37678;DHT22;23517;50.390;8.616;2023-03-26T20:21:31;7.20;75.00
37678;DHT22;23517;50.390;8.616;2023-03-26T20:24:00;7.20;73.80
37678;DHT22;23517;50.390;8.616;2023-03-26T20:26:28;7.20;74.60
37678;DHT22;23517;50.390;8.616;2023-03-26T20:28:54;7.10;75.30
37678;DHT22;23517;50.390;8.616;2023-03-26T20:31:24;7.00;74.70
37678;DHT22;23517;50.390;8.616;2023-03-26T20:33:52;7.00;74.40
37678;DHT22;23517;50.390;8.616;2023-03-26T20:36:19;7.00;75.50
37678;DHT22;23517;50.390;8.616;2023-03-26T20:39:03;7.00;77.40
37678;DHT22;23517;50.390;8.616;2023-03-26T20:41:34;6.90;76.20
37678;DHT22;23517;50.390;8.616;2023-03-26T20:44:14;6.90;73.70
37678;DHT22;23517;50.390;8.616;2023-03-26T20:46:43;6.90;73.10
37678;DHT22;23517;50.390;8.616;2023-03-26T20:49:11;6.90;73.00
37678;DHT22;23517;50.390;8.616;2023-03-26T20:51:40;6.90;73.40
37678;DHT22;23517;50.390;8.616;2023-03-26T20:54:16;6.90;73.50
37678;DHT22;23517;50.390;8.616;2023-03-26T20:56:44;6.80;74.00
37678;DHT22;23517;50.390;8.616;2023-03-26T20:59:17;6.80;74.40
37678;DHT22;23517;50.390;8.616;2023-03-26T21:01:52;6.80;73.80
37678;DHT22;23517;50.390;8.616;2023-03-26T21:04:21;6.80;72.80
37678;DHT22;23517;50.390;8.616;2023-03-26T21:06:48;6.80;72.50
37678;DHT22;23517;50.390;8.616;2023-03-26T21:09:17;6.70;71.20
37678;DHT22;23517;50.390;8.616;2023-03-26T21:12:02;6.60;73.60
37678;DHT22;23517;50.390;8.616;2023-03-26T21:14:33;6.60;74.60
37678;DHT22;23517;50.390;8.616;2023-03-26T21:17:10;6.60;75.10
37678;DHT22;23517;50.390;8.616;2023-03-26T21:19:44;6.60;75.50
37678;DHT22;23517;50.390;8.616;2023-03-26T21:22:20;6.70;73.80
37678;DHT22;23517;50.390;8.616;2023-03-26T21:28:15;6.60;74.50
37678;DHT22;23517;50.390;8.616;2023-03-26T21:31:14;6.60;74.80
37678;DHT22;23517;50.390;8.616;2023-03-26T21:33:46;6.60;76.00
37678;DHT22;23517;50.390;8.616;2023-03-26T21:36:17;6.60;76.10
37678;DHT22;23517;50.390;8.616;2023-03-26T21:38:45;6.60;76.40
37678;DHT22;23517;50.390;8.616;2023-03-26T21:43:50;6.50;69.20
37678;DHT22;23517;50.390;8.616;2023-03-26T21:46:17;6.50;69.90
37678;DHT22;23517;50.390;8.616;2023-03-26T21:48:46;6.40;70.10
37678;DHT22;23517;50.390;8.616;2023-03-26T21:51:13;6.40;69.70
37678;DHT22;23517;50.390;8.616;2023-03-26T21:53:41;6.30;69.30